WetterOnline ( https://www.wetteronline.de )

Wetter aktuell Holmsund

Aktuelles Wetter: Jarnasklubb (7m)

6-stündlich | Neueste Meldungen
Ortszeit Temperatur Wetter
Fr, 04.12. 19:00 3.7° C bedeckt
Fr, 04.12. 13:00 2.6° C leichter Regen
Fr, 04.12. 7:00 3.2° C bedeckt
Fr, 04.12. 1:00 3.4° C bedeckt
Do, 03.12. 19:00 3.6° C bedeckt
Do, 03.12. 13:00 3.8° C bedeckt
Do, 03.12. 7:00 4.2° C bedeckt
Do, 03.12. 1:00 4.9° C bewölkt
Ortszeit Temperatur Wetter
Sa, 05.12. 0:00 2.6° C leichter Regen
Fr, 04.12. 23:00 2.8° C leichter Regen
Fr, 04.12. 22:00 2.9° C leichter Regen
Fr, 04.12. 21:00 3.3° C Sprühregen
Fr, 04.12. 20:00 3.1° C leichte Schauer
Fr, 04.12. 19:00 3.7° C bedeckt
Ortszeit Relative Feuchte Sichtweite
Fr, 04.12. 19:00 88% 17 km
Fr, 04.12. 13:00 95% 6 km
Fr, 04.12. 7:00 87% 22 km
Fr, 04.12. 1:00 87% 21 km
Do, 03.12. 19:00 87% 16 km
Do, 03.12. 13:00 87% 15 km
Do, 03.12. 7:00 87% 16 km
Do, 03.12. 1:00 87% 22 km
Ortszeit Relative Feuchte Sichtweite
Sa, 05.12. 0:00 96% 23 km
Fr, 04.12. 23:00 94% 16 km
Fr, 04.12. 22:00 94% 7 km
Fr, 04.12. 21:00 92% 8 km
Fr, 04.12. 20:00 92% 4.3 km
Fr, 04.12. 19:00 88% 17 km
Ortszeit Niederschlagsmenge Niederschlagsart
Fr, 04.12. 19:00 3 l/m2 in 12 Std. Regenschauer
Fr, 04.12. 13:00 keine Meldung -
Fr, 04.12. 7:00 0.1 l/m2 in 12 Std. -
Fr, 04.12. 1:00 0.1 l/m2 in 1 Std. Schauer
Do, 03.12. 19:00 1 l/m2 in 12 Std. Regenschauer
Do, 03.12. 13:00 keine Meldung -
Do, 03.12. 7:00 1 l/m2 in 12 Std. Regenschauer
Do, 03.12. 1:00 0.0 l/m2 in 1 Std. -
Ortszeit Niederschlagsmenge Niederschlagsart
Sa, 05.12. 0:00 0.6 l/m2 in 1 Std. Regenschauer
Fr, 04.12. 23:00 0.6 l/m2 in 1 Std. Regenschauer
Fr, 04.12. 22:00 0.4 l/m2 in 1 Std. Regenschauer
Fr, 04.12. 21:00 0.1 l/m2 in 1 Std. Regenschauer
Fr, 04.12. 20:00 0.1 l/m2 in 1 Std. Schauer
Fr, 04.12. 19:00 0.0 l/m2 in 1 Std. Regenschauer
Ortszeit Stärke Spitze Richtung
km/h Bft. km/h Grad Sektor
Fr, 04.12. 19:00 36 5 47 160° S
Fr, 04.12. 13:00 44 6 - 150° SO
Fr, 04.12. 7:00 43 6 54 150° SO
Fr, 04.12. 1:00 43 6 58 170° S
Do, 03.12. 19:00 50 6 - 160° S
Do, 03.12. 13:00 58 7 - 180° S
Do, 03.12. 7:00 40 6 - 200° S
Do, 03.12. 1:00 43 6 58 200° S
Ortszeit Stärke Spitze Richtung
km/h Bft. km/h Grad Sektor
Sa, 05.12. 0:00 29 5 43 130° SO
Fr, 04.12. 23:00 33 5 39 130° SO
Fr, 04.12. 22:00 31 5 39 130° SO
Fr, 04.12. 21:00 33 5 41 140° SO
Fr, 04.12. 20:00 35 5 44 150° SO
Fr, 04.12. 19:00 36 5 47 160° S
Ortszeit Untergrenze Bedeckung Gattung
total tief tief mittel hoch
Fr, 04.12. 19:00 360 m 8/8 8/8 - - -
Fr, 04.12. 13:00 240 m 8/8 8/8 - - -
Fr, 04.12. 7:00 390 m 8/8 8/8 - - -
Fr, 04.12. 1:00 420 m 8/8 8/8 - - -
Do, 03.12. 19:00 420 m 8/8 8/8 - - -
Do, 03.12. 13:00 510 m 8/8 2/8 - - -
Do, 03.12. 7:00 390 m 8/8 8/8 - - -
Do, 03.12. 1:00 450 m 8/8 7/8 - - -
Ortszeit Bedeckungsgrad in Achtel und Wolkenuntergrenze
Sa, 05.12. 0:00 8(180m)
Fr, 04.12. 23:00 8(210m)
Fr, 04.12. 22:00 8(210m)
Fr, 04.12. 21:00 8(270m)
Fr, 04.12. 20:00 8(270m)
Fr, 04.12. 19:00 8(360m)
Ortszeit Luftdruck NN (hPa) Tendenz (hPa in 3 Std.)
Fr, 04.12. 19:00 1011 0,0
Fr, 04.12. 13:00 1011 - 1,0
Fr, 04.12. 7:00 1012 + 0,1
Fr, 04.12. 1:00 1013 - 0,5
Do, 03.12. 19:00 1013 0,0
Do, 03.12. 13:00 1013 - 0,2
Do, 03.12. 7:00 1012 - 0,3
Do, 03.12. 1:00 1014 - 0,5
Ortszeit Luftdruck NN (hPa) Tendenz (hPa in 3 Std.)
Sa, 05.12. 0:00 1010 - 0,8
Fr, 04.12. 23:00 1010 - 0,7
Fr, 04.12. 22:00 1010 - 0,3
Fr, 04.12. 21:00 1011 - 0,1
Fr, 04.12. 20:00 1011 + 0,2
Fr, 04.12. 19:00 1011 0,0
Ortszeit Schneehöhe (cm)
Fr, 04.12. 19:00 -
Fr, 04.12. 13:00 -
Fr, 04.12. 7:00 -
Fr, 04.12. 1:00 -
Do, 03.12. 19:00 -
Do, 03.12. 13:00 -
Do, 03.12. 7:00 -
Do, 03.12. 1:00 -
Ortszeit Schneehöhe (cm)
Sa, 05.12. 0:00 -
Fr, 04.12. 23:00 -
Fr, 04.12. 22:00 -
Fr, 04.12. 21:00 -
Fr, 04.12. 20:00 -
Fr, 04.12. 19:00 -
Link zu dieser Seite / Seite empfehlen

Das Wetter in ...